Time;durP1;ratioP1;P1;durP2;ratioP2;P2;SDS_P1;SDS_P2;PMS_P1;PMS_P2;Temp;Humidity;BMP_temperature;BMP_pressure;BME280_temperature;BME280_humidity;BME280_pressure;Samples;Min_cycle;Max_cycle;Signal;HPM_P1;HPM_P2
2022/10/12 00:01:57;;;;;;;3.33;2.07;;;;;;;10.29;67.38;99709.94;5074887;28;40876;-78
2022/10/12 00:04:25;;;;;;;4.97;3.10;;;;;;;10.36;67.16;99706.94;5074683;28;42840;-77
2022/10/12 00:06:52;;;;;;;5.53;2.93;;;;;;;10.44;67.12;99714.50;5074815;28;42094;-78
2022/10/12 00:09:20;;;;;;;5.03;3.20;;;;;;;10.49;67.36;99709.88;5091903;28;39887;-78
2022/10/12 00:11:49;;;;;;;4.50;2.83;;;;;;;10.55;67.88;99703.38;5092348;28;41805;-78
2022/10/12 00:14:17;;;;;;;8.23;3.83;;;;;;;10.52;67.92;99690.28;5073857;28;42784;-78
2022/10/12 00:16:44;;;;;;;4.47;3.07;;;;;;;10.61;68.22;99705.75;5089536;28;41064;-78
2022/10/12 00:19:13;;;;;;;5.43;3.60;;;;;;;10.63;68.73;99694.13;5073572;28;39021;-78
2022/10/12 00:21:41;;;;;;;5.47;3.30;;;;;;;10.68;68.43;99696.56;5091518;28;41651;-78
2022/10/12 00:24:09;;;;;;;4.33;2.77;;;;;;;10.69;68.53;99688.53;5073020;28;45153;-78
2022/10/12 00:26:37;;;;;;;4.13;3.03;;;;;;;10.76;68.82;99694.38;5089571;28;41303;-77
2022/10/12 00:29:06;;;;;;;8.47;3.20;;;;;;;10.80;69.20;99685.34;5073014;28;40003;-78
2022/10/12 00:31:33;;;;;;;4.17;3.00;;;;;;;10.79;69.10;99689.78;5090101;28;40968;-78
2022/10/12 00:34:02;;;;;;;5.70;3.40;;;;;;;10.67;69.30;99663.06;5090025;28;43211;-77
2022/10/12 00:36:32;;;;;;;6.03;2.70;;;;;;;10.61;69.17;99663.38;5073246;28;42627;-78
2022/10/12 00:39:00;;;;;;;5.47;3.00;;;;;;;10.63;68.85;99682.69;5090483;28;39847;-75
2022/10/12 00:41:30;;;;;;;6.43;2.87;;;;;;;10.56;69.06;99681.28;5073197;28;41074;-77
2022/10/12 00:43:58;;;;;;;3.47;2.50;;;;;;;10.46;68.67;99685.31;5090985;28;42731;-77
2022/10/12 00:46:33;;;;;;;4.00;1.93;;;;;;;10.37;68.78;99682.19;5090076;28;43177;-78
2022/10/12 00:49:09;;;;;;;2.77;2.10;;;;;;;10.26;68.86;99684.47;5072943;28;40508;-77
2022/10/12 00:51:39;;;;;;;5.77;2.47;;;;;;;10.18;68.55;99677.81;5087024;28;42546;-78
2022/10/12 00:54:11;;;;;;;3.73;2.40;;;;;;;9.97;68.81;99661.16;5072710;28;41400;-79
2022/10/12 00:56:41;;;;;;;3.93;2.57;;;;;;;9.80;69.04;99647.84;5088830;28;42288;-78
2022/10/12 00:59:12;;;;;;;3.43;2.13;;;;;;;9.90;68.94;99678.22;5073959;28;39189;-77
2022/10/12 01:01:41;;;;;;;5.30;2.40;;;;;;;9.76;68.63;99667.47;5073995;28;40737;-77
2022/10/12 01:04:09;;;;;;;4.30;2.47;;;;;;;9.73;68.81;99674.59;5073480;28;41657;-77
2022/10/12 01:06:37;;;;;;;2.20;2.00;;;;;;;9.68;68.86;99681.00;5090939;28;43209;-76
2022/10/12 01:09:04;;;;;;;3.23;1.87;;;;;;;9.61;68.46;99672.53;5073916;28;40452;-77
2022/10/12 01:11:32;;;;;;;2.77;1.83;;;;;;;9.55;68.82;99680.72;5090645;28;41795;-77
2022/10/12 01:14:00;;;;;;;4.23;2.13;;;;;;;9.34;68.57;99656.09;5090864;28;43696;-78
2022/10/12 01:16:35;;;;;;;2.97;1.83;;;;;;;9.44;68.57;99679.47;5090717;28;41068;-78
2022/10/12 01:19:17;;;;;;;2.93;1.70;;;;;;;9.35;69.05;99689.56;5089760;28;40071;-78
2022/10/12 01:21:51;;;;;;;4.83;2.43;;;;;;;9.17;69.07;99668.34;5091026;28;41877;-77
2022/10/12 01:24:38;;;;;;;3.00;2.03;;;;;;;9.25;69.71;99687.38;5073025;28;42022;-79
2022/10/12 01:27:27;;;;;;;4.67;2.40;;;;;;;9.19;69.90;99682.34;5089334;28;41424;-77
2022/10/12 01:30:10;;;;;;;4.50;2.37;;;;;;;8.99;69.71;99665.59;5073017;28;39073;-77
2022/10/12 01:32:57;;;;;;;4.90;2.63;;;;;;;9.08;69.55;99684.59;5090266;28;40651;-78
2022/10/12 01:35:28;;;;;;;3.90;1.97;;;;;;;9.00;69.96;99677.88;5073653;28;42976;-77
2022/10/12 01:38:04;;;;;;;4.90;2.07;;;;;;;8.92;70.49;99664.13;5073856;28;41160;-77
2022/10/12 01:40:38;;;;;;;4.10;2.03;;;;;;;8.80;70.28;99658.50;5090701;28;40256;-77
2022/10/12 01:43:06;;;;;;;3.60;2.53;;;;;;;8.93;70.39;99689.63;5091856;28;41798;-78
2022/10/12 01:45:35;;;;;;;3.30;1.80;;;;;;;8.92;70.27;99690.53;5076765;28;43963;-78
2022/10/12 01:48:04;;;;;;;5.43;2.67;;;;;;;8.79;70.22;99667.34;5077013;28;42273;-77
2022/10/12 01:50:40;;;;;;;2.90;2.10;;;;;;;8.87;70.27;99692.53;5077392;28;38951;-77
2022/10/12 01:53:19;;;;;;;3.60;2.33;;;;;;;8.85;70.50;99689.09;5091856;28;42015;-77
2022/10/12 01:55:53;;;;;;;4.07;2.30;;;;;;;8.81;70.77;99684.84;5081727;28;41723;-78
2022/10/12 01:58:32;;;;;;;2.93;2.53;;;;;;;8.79;70.94;99689.34;5088967;28;40617;-78
2022/10/12 02:01:12;;;;;;;3.13;2.23;;;;;;;8.76;71.49;99684.19;5101826;28;40933;-78
2022/10/12 02:03:46;;;;;;;3.37;2.60;;;;;;;8.73;71.25;99681.69;5088578;28;42737;-78
2022/10/12 02:06:18;;;;;;;4.33;2.20;;;;;;;8.61;71.33;99661.06;5103151;28;44378;-79
2022/10/12 02:08:51;;;;;;;3.87;2.30;;;;;;;8.56;71.37;99650.69;5081519;28;41424;-77
2022/10/12 02:11:23;;;;;;;3.43;2.27;;;;;;;8.60;71.22;99662.00;5075443;28;39022;-78
2022/10/12 02:13:54;;;;;;;2.83;1.97;;;;;;;8.65;71.65;99678.50;5092344;28;41633;-78
2022/10/12 02:16:27;;;;;;;2.40;2.00;;;;;;;8.63;71.27;99678.56;5092158;28;41808;-78
2022/10/12 02:18:58;;;;;;;2.93;2.30;;;;;;;8.62;70.89;99681.28;5092500;28;42292;-78
2022/10/12 02:21:29;;;;;;;2.77;1.70;;;;;;;8.57;70.92;99667.38;5092252;28;39756;-78
2022/10/12 02:24:01;;;;;;;4.07;2.10;;;;;;;8.57;71.07;99675.31;5092576;28;42297;-77
2022/10/12 02:26:32;;;;;;;2.87;2.10;;;;;;;8.57;71.14;99677.94;5075106;28;41287;-78
2022/10/12 02:29:03;;;;;;;2.30;2.10;;;;;;;8.53;70.77;99665.81;5091317;28;43158;-78
2022/10/12 02:31:37;;;;;;;2.70;1.80;;;;;;;8.48;71.01;99659.84;5092013;28;39038;-79
2022/10/12 02:34:10;;;;;;;5.57;2.40;;;;;;;8.44;71.55;99653.84;5091232;28;41730;-78
2022/10/12 02:36:46;;;;;;;3.47;2.50;;;;;;;8.32;71.76;99637.63;5088858;28;42811;-78
2022/10/12 02:39:20;;;;;;;6.00;2.67;;;;;;;8.43;72.36;99654.75;5092461;28;43040;-78
2022/10/12 02:41:51;;;;;;;5.03;3.00;;;;;;;8.42;72.25;99647.75;5075212;28;40690;-78
2022/10/12 02:44:23;;;;;;;3.83;2.30;;;;;;;8.43;72.33;99648.63;5076371;28;40690;-78
2022/10/12 02:46:55;;;;;;;3.27;2.30;;;;;;;8.39;72.60;99647.91;5076063;28;42930;-78
2022/10/12 02:49:26;;;;;;;4.07;2.27;;;;;;;8.25;71.95;99632.59;5093547;28;42126;-78
2022/10/12 02:51:56;;;;;;;3.20;2.20;;;;;;;8.31;71.96;99644.66;5076242;28;40026;-78
2022/10/12 02:54:24;;;;;;;7.37;2.73;;;;;;;8.19;71.95;99624.91;5093772;28;41698;-78
2022/10/12 02:56:51;;;;;;;6.93;2.70;;;;;;;8.32;72.00;99651.69;5092318;28;43102;-78
2022/10/12 02:59:19;;;;;;;3.33;2.37;;;;;;;8.20;72.46;99631.91;5093849;28;42326;-78
2022/10/12 03:01:47;;;;;;;5.53;2.60;;;;;;;8.26;72.34;99639.59;5092474;28;39637;-78
2022/10/12 03:04:16;;;;;;;4.13;2.30;;;;;;;8.22;72.07;99640.63;5075663;28;41969;-77
2022/10/12 03:06:44;;;;;;;2.57;2.13;;;;;;;8.15;72.34;99633.91;5092790;28;42793;-78
2022/10/12 03:09:13;;;;;;;3.83;2.20;;;;;;;8.20;72.83;99638.97;5075314;28;43620;-78
2022/10/12 03:11:42;;;;;;;7.53;2.67;;;;;;;8.20;72.56;99641.59;5093066;28;39982;-79
2022/10/12 03:14:10;;;;;;;4.07;2.40;;;;;;;8.17;72.18;99637.31;5091039;28;41764;-77
2022/10/12 03:16:38;;;;;;;7.63;2.93;;;;;;;8.16;72.08;99646.13;5091359;28;43011;-78
2022/10/12 03:19:06;;;;;;;3.47;2.23;;;;;;;8.14;72.33;99645.38;5074259;28;42359;-78
2022/10/12 03:21:35;;;;;;;4.03;2.20;;;;;;;8.11;72.33;99642.84;5074697;28;40292;-78
2022/10/12 03:24:03;;;;;;;3.00;2.10;;;;;;;8.08;71.91;99636.81;5074201;28;40881;-79
2022/10/12 03:26:30;;;;;;;2.20;2.00;;;;;;;8.09;71.82;99654.38;5091088;28;41727;-78
2022/10/12 03:28:58;;;;;;;3.43;2.10;;;;;;;8.06;71.84;99654.47;5090914;28;42095;-78
2022/10/12 03:31:26;;;;;;;5.30;2.30;;;;;;;8.04;71.92;99666.88;5074362;28;39954;-78
2022/10/12 03:33:54;;;;;;;4.67;2.40;;;;;;;8.00;72.48;99655.59;5073908;28;41876;-78
2022/10/12 03:36:22;;;;;;;3.47;2.43;;;;;;;7.99;72.31;99661.78;5092206;28;42758;-78
2022/10/12 03:38:51;;;;;;;3.40;2.20;;;;;;;7.97;72.49;99661.00;5090916;28;42522;-78
2022/10/12 03:41:18;;;;;;;3.03;2.13;;;;;;;7.79;72.55;99630.06;5091303;28;39900;-78
2022/10/12 03:43:46;;;;;;;5.10;2.27;;;;;;;7.95;72.83;99662.81;5090916;28;40841;-79
2022/10/12 03:46:14;;;;;;;3.40;2.40;;;;;;;7.92;72.63;99658.50;5073979;28;42884;-78
2022/10/12 03:48:41;;;;;;;4.53;2.53;;;;;;;7.91;73.24;99655.97;5090870;28;41283;-78
2022/10/12 03:51:09;;;;;;;4.63;2.73;;;;;;;7.91;72.63;99658.59;5091002;28;40282;-78
2022/10/12 03:53:37;;;;;;;3.17;2.60;;;;;;;7.88;72.86;99671.91;5090891;28;41851;-78
2022/10/12 03:56:07;;;;;;;3.30;1.90;;;;;;;7.86;72.80;99663.19;5090712;28;42713;-77
2022/10/12 03:58:36;;;;;;;3.63;2.53;;;;;;;7.83;72.40;99673.84;5074874;28;42101;-78
2022/10/12 04:01:03;;;;;;;3.13;2.03;;;;;;;7.82;72.80;99666.84;5091436;28;40960;-77
2022/10/12 04:03:31;;;;;;;4.63;2.23;;;;;;;7.78;72.46;99660.84;5091236;28;40453;-77
2022/10/12 04:05:59;;;;;;;2.63;1.90;;;;;;;7.76;72.42;99669.75;5074771;28;42978;-77
2022/10/12 04:08:27;;;;;;;2.10;1.90;;;;;;;7.74;72.40;99663.66;5091787;28;41297;-77
2022/10/12 04:10:55;;;;;;;3.27;2.20;;;;;;;7.72;72.34;99671.63;5074768;28;40137;-77
2022/10/12 04:13:24;;;;;;;2.70;2.50;;;;;;;7.71;72.60;99671.69;5074571;28;43052;-77
2022/10/12 04:15:51;;;;;;;3.20;1.70;;;;;;;7.55;72.51;99653.78;5074472;28;44863;-77
2022/10/12 04:18:19;;;;;;;2.97;2.10;;;;;;;7.65;72.49;99666.66;5091530;28;43148;-77
2022/10/12 04:20:48;;;;;;;3.70;2.10;;;;;;;7.52;72.62;99648.66;5091484;28;40036;-78
2022/10/12 04:23:16;;;;;;;2.77;2.10;;;;;;;7.64;72.51;99662.28;5074405;28;42192;-77
2022/10/12 04:25:44;;;;;;;3.43;2.20;;;;;;;7.52;72.56;99642.53;5072684;28;41680;-78
2022/10/12 04:28:12;;;;;;;4.00;2.37;;;;;;;7.60;72.50;99674.72;5091919;28;42040;-78
2022/10/12 04:30:41;;;;;;;2.40;1.97;;;;;;;7.58;72.35;99668.63;5091645;28;40253;-77
2022/10/12 04:33:08;;;;;;;2.53;2.17;;;;;;;7.55;72.34;99676.66;5090752;28;40691;-77
2022/10/12 04:35:36;;;;;;;3.30;2.27;;;;;;;7.35;71.96;99640.50;5091096;28;42812;-78
2022/10/12 04:38:04;;;;;;;2.37;2.10;;;;;;;7.50;72.19;99678.63;5090855;28;41569;-77
2022/10/12 04:40:32;;;;;;;5.50;2.40;;;;;;;7.33;71.91;99657.28;5091336;28;40279;-77
2022/10/12 04:43:00;;;;;;;3.03;2.10;;;;;;;7.33;71.93;99658.13;5108206;28;40718;-77
2022/10/12 04:45:28;;;;;;;3.07;2.23;;;;;;;7.41;71.99;99687.72;5073907;28;42626;-77
2022/10/12 04:47:57;;;;;;;2.30;1.87;;;;;;;7.39;72.04;99689.56;5073830;28;43110;-77
2022/10/12 04:50:24;;;;;;;2.20;2.00;;;;;;;7.35;71.84;99687.94;5092553;28;39878;-77
2022/10/12 04:52:52;;;;;;;3.50;2.10;;;;;;;7.33;71.60;99684.50;5073837;28;42330;-77
2022/10/12 04:55:20;;;;;;;2.70;1.97;;;;;;;7.30;71.67;99687.22;5074410;28;42749;-77
2022/10/12 04:57:48;;;;;;;2.67;2.20;;;;;;;7.30;71.58;99687.22;5090381;28;43557;-77
2022/10/12 05:00:17;;;;;;;3.47;2.10;;;;;;;7.29;71.85;99693.44;5091030;28;40018;-78
2022/10/12 05:02:45;;;;;;;2.37;2.17;;;;;;;7.26;71.54;99688.28;5089430;28;42285;-77
2022/10/12 05:05:14;;;;;;;3.77;2.40;;;;;;;7.25;71.65;99686.56;5072975;28;43616;-78
2022/10/12 05:07:41;;;;;;;3.47;2.47;;;;;;;7.24;71.59;99683.97;5089476;28;41213;-79
2022/10/12 05:10:09;;;;;;;2.60;2.13;;;;;;;7.24;71.59;99690.09;5090136;28;39900;-77
2022/10/12 05:12:37;;;;;;;2.63;2.00;;;;;;;7.24;71.57;99679.56;5089861;28;41547;-78
2022/10/12 05:15:06;;;;;;;3.03;2.27;;;;;;;7.29;71.73;99679.41;5076670;28;41991;-78
2022/10/12 05:17:33;;;;;;;2.53;2.00;;;;;;;7.35;71.67;99687.06;5075937;28;43343;-77
2022/10/12 05:20:01;;;;;;;3.07;2.17;;;;;;;7.39;71.44;99684.28;5093441;28;40157;-78
2022/10/12 05:22:31;;;;;;;3.47;2.13;;;;;;;7.45;71.39;99694.59;5094680;28;41675;-78
2022/10/12 05:24:59;;;;;;;2.13;1.90;;;;;;;7.52;71.45;99682.91;5093248;28;41534;-78
2022/10/12 05:27:26;;;;;;;2.93;2.03;;;;;;;7.57;71.75;99680.97;5094349;28;42000;-78
2022/10/12 05:29:54;;;;;;;3.23;2.40;;;;;;;7.64;71.67;99678.09;5076361;28;39068;-78
2022/10/12 05:32:22;;;;;;;3.63;2.27;;;;;;;7.69;71.67;99677.00;5093011;28;41385;-79
2022/10/12 05:34:50;;;;;;;2.97;2.67;;;;;;;7.74;71.61;99679.47;5093093;28;44019;-79
2022/10/12 05:37:17;;;;;;;2.90;2.40;;;;;;;7.81;71.50;99678.31;5093109;28;42600;-79
2022/10/12 05:39:48;;;;;;;3.10;2.73;;;;;;;7.88;72.17;99674.53;5093013;28;40172;-78
2022/10/12 05:42:16;;;;;;;6.67;3.33;;;;;;;7.93;72.92;99675.19;5090036;28;41684;-78
2022/10/12 05:44:44;;;;;;;3.40;2.43;;;;;;;7.99;72.51;99680.25;5075766;28;41940;-79
2022/10/12 05:47:12;;;;;;;3.33;2.83;;;;;;;8.03;72.55;99689.78;5075748;28;42757;-78
2022/10/12 05:49:39;;;;;;;3.80;2.50;;;;;;;7.96;72.49;99661.91;5075770;28;39005;-78
2022/10/12 05:52:07;;;;;;;4.03;2.50;;;;;;;8.11;72.36;99685.06;5093094;28;42537;-80
2022/10/12 05:54:35;;;;;;;6.03;2.37;;;;;;;8.21;72.16;99686.41;5093043;28;43715;-82
2022/10/12 05:57:05;;;;;;;3.57;3.00;;;;;;;8.27;72.27;99685.31;5093060;28;42159;-84
2022/10/12 05:59:32;;;;;;;2.90;2.20;;;;;;;8.39;71.70;99684.00;5076058;28;39926;-82
2022/10/12 06:02:00;;;;;;;2.23;2.03;;;;;;;8.49;71.62;99685.34;5093496;28;41662;-81
2022/10/12 06:04:28;;;;;;;3.10;2.47;;;;;;;8.48;71.71;99667.78;5075886;28;43072;-81
2022/10/12 06:06:55;;;;;;;3.07;2.30;;;;;;;8.71;71.23;99691.44;5093017;28;43967;-82
2022/10/12 06:09:23;;;;;;;4.63;3.13;;;;;;;8.66;71.55;99664.34;5059232;28;40179;-82
2022/10/12 06:11:51;;;;;;;4.13;2.83;;;;;;;8.89;71.57;99685.41;5093193;28;42638;-78
2022/10/12 06:14:20;;;;;;;4.47;2.73;;;;;;;8.96;71.33;99692.13;5075453;28;41706;-79
2022/10/12 06:16:48;;;;;;;3.50;2.67;;;;;;;8.97;71.45;99683.28;5092156;28;41193;-79
2022/10/12 06:19:15;;;;;;;5.27;2.50;;;;;;;9.01;71.77;99676.09;5092568;28;40081;-79
2022/10/12 06:21:43;;;;;;;7.70;3.30;;;;;;;9.03;71.83;99687.44;5109393;28;41625;-77
2022/10/12 06:24:11;;;;;;;6.27;3.37;;;;;;;9.02;71.57;99689.22;5092308;28;43690;-78
2022/10/12 06:26:39;;;;;;;9.23;3.30;;;;;;;9.02;71.55;99685.75;5091760;28;42798;-78
2022/10/12 06:29:06;;;;;;;4.53;2.77;;;;;;;8.99;71.88;99684.09;5075311;28;39000;-78
2022/10/12 06:31:37;;;;;;;5.50;2.80;;;;;;;9.04;71.72;99689.16;5093341;28;41446;-77
2022/10/12 06:34:04;;;;;;;5.27;2.70;;;;;;;9.06;71.65;99692.59;5092409;28;41758;-79
2022/10/12 06:36:32;;;;;;;4.30;3.40;;;;;;;8.95;71.87;99669.28;5092446;28;42946;-78
2022/10/12 06:39:00;;;;;;;4.70;3.17;;;;;;;9.10;71.82;99699.47;5091903;28;39213;-78
2022/10/12 06:41:28;;;;;;;6.93;3.20;;;;;;;9.19;71.76;99700.84;5091538;28;40807;-78
2022/10/12 06:43:56;;;;;;;4.13;2.90;;;;;;;9.28;71.48;99703.09;5074883;28;43049;-77
2022/10/12 06:46:23;;;;;;;3.60;2.70;;;;;;;9.43;71.13;99702.41;5091824;28;41352;-77
2022/10/12 06:48:52;;;;;;;4.23;3.20;;;;;;;9.54;71.23;99700.16;5074661;28;40137;-78
2022/10/12 06:51:20;;;;;;;4.03;2.87;;;;;;;9.91;70.85;99691.41;5074900;28;40702;-77
2022/10/12 06:53:48;;;;;;;6.07;2.80;;;;;;;10.41;70.01;99699.63;5091507;28;42129;-78
2022/10/12 06:56:16;;;;;;;4.43;2.93;;;;;;;11.39;68.50;99705.28;5074904;28;40628;-79
2022/10/12 06:58:44;;;;;;;6.47;3.13;;;;;;;13.12;64.69;99708.84;5074517;28;39893;-80
2022/10/12 07:01:11;;;;;;;6.73;2.80;;;;;;;14.90;60.67;99726.09;5091713;28;41003;-78
2022/10/12 07:03:39;;;;;;;4.73;2.60;;;;;;;15.29;57.49;99726.09;5092364;28;43696;-78
2022/10/12 07:06:11;;;;;;;4.50;2.60;;;;;;;14.67;58.54;99736.47;5091479;28;41396;-79
2022/10/12 07:08:40;;;;;;;5.53;3.00;;;;;;;14.14;58.70;99739.00;5074527;28;38831;-78
2022/10/12 07:11:09;;;;;;;5.30;2.53;;;;;;;13.56;59.92;99722.19;5091429;28;43121;-78
2022/10/12 07:13:38;;;;;;;5.43;3.37;;;;;;;13.16;60.53;99729.03;5091185;28;43174;-79
2022/10/12 07:16:06;;;;;;;4.20;2.73;;;;;;;12.83;61.40;99731.00;5074244;28;41133;-77
2022/10/12 07:18:34;;;;;;;6.03;3.33;;;;;;;12.53;62.15;99737.09;5091031;28;39962;-79
2022/10/12 07:21:02;;;;;;;3.63;2.67;;;;;;;12.28;62.80;99728.78;5074225;28;40762;-79
2022/10/12 07:23:32;;;;;;;5.97;2.70;;;;;;;11.84;63.04;99680.81;5091219;28;42946;-79
2022/10/12 07:26:01;;;;;;;6.33;2.93;;;;;;;12.05;63.75;99731.84;5074297;28;41723;-78
2022/10/12 07:28:29;;;;;;;5.60;2.60;;;;;;;11.97;63.73;99726.13;5092184;28;40063;-78
2022/10/12 07:31:00;;;;;;;4.47;2.30;;;;;;;11.92;63.98;99729.00;5090853;28;40666;-78
2022/10/12 07:33:32;;;;;;;4.67;2.73;;;;;;;11.86;64.06;99711.63;5073982;28;42968;-79
2022/10/12 07:36:00;;;;;;;3.03;2.73;;;;;;;11.94;64.31;99723.63;5090881;28;40863;-79
2022/10/12 07:38:28;;;;;;;4.57;3.50;;;;;;;11.97;64.44;99718.16;5090236;28;41466;-79
2022/10/12 07:41:00;;;;;;;3.47;2.90;;;;;;;12.22;63.85;99718.53;5074018;28;40565;-79
2022/10/12 07:43:29;;;;;;;5.07;3.67;;;;;;;12.55;63.26;99721.06;5073515;28;43124;-77
2022/10/12 07:45:57;;;;;;;6.07;3.40;;;;;;;12.82;62.79;99718.63;5090591;28;41197;-78
2022/10/12 07:48:25;;;;;;;5.77;3.03;;;;;;;12.89;62.63;99720.84;5073842;28;41627;-79
2022/10/12 07:50:52;;;;;;;7.87;4.00;;;;;;;12.85;62.28;99678.59;5092032;28;42007;-78
2022/10/12 07:53:20;;;;;;;7.43;3.80;;;;;;;13.86;61.06;99687.47;5073661;28;41919;-80
2022/10/12 07:55:48;;;;;;;6.03;3.70;;;;;;;15.35;56.34;99747.00;5073347;28;43834;-79
2022/10/12 07:58:18;;;;;;;5.30;3.20;;;;;;;15.95;55.42;99746.44;5073882;28;41249;-77
2022/10/12 08:00:45;;;;;;;6.40;4.13;;;;;;;16.35;54.69;99722.22;5090975;28;43616;-81
2022/10/12 08:03:13;;;;;;;5.40;3.50;;;;;;;17.68;52.17;99774.75;5073454;28;41562;-78
2022/10/12 08:05:41;;;;;;;8.27;3.57;;;;;;;18.99;49.35;99784.72;5091938;28;41995;-79
2022/10/12 08:08:08;;;;;;;5.57;3.30;;;;;;;19.54;48.06;99785.50;5073287;28;39236;-80
2022/10/12 08:10:37;;;;;;;6.37;3.53;;;;;;;19.50;48.17;99754.50;5090672;28;41002;-80
2022/10/12 08:13:05;;;;;;;5.33;3.57;;;;;;;19.14;48.45;99762.94;5073675;28;42996;-80
2022/10/12 08:15:34;;;;;;;3.60;3.30;;;;;;;18.80;47.24;99781.81;5091912;28;43218;-80
2022/10/12 08:18:01;;;;;;;6.03;3.23;;;;;;;19.09;48.87;99759.78;5091721;28;40611;-80
2022/10/12 08:20:29;;;;;;;5.20;2.97;;;;;;;21.14;45.16;99784.81;5073780;28;40561;-79
2022/10/12 08:22:57;;;;;;;5.97;3.60;;;;;;;23.28;41.49;99790.28;5073346;28;43217;-80
2022/10/12 08:25:25;;;;;;;6.20;3.93;;;;;;;25.00;38.22;99811.13;5090618;28;42918;-79
2022/10/12 08:27:52;;;;;;;4.33;3.53;;;;;;;25.69;36.65;99825.34;5090103;28;39107;-82
2022/10/12 08:30:25;;;;;;;5.37;3.80;;;;;;;26.00;35.76;99826.34;5091718;28;41968;-81
2022/10/12 08:32:54;;;;;;;6.53;4.10;;;;;;;26.43;33.46;99835.16;5073488;28;41477;-81
2022/10/12 08:35:22;;;;;;;6.73;3.70;;;;;;;26.39;34.45;99822.91;5073652;28;41108;-80
2022/10/12 08:37:50;;;;;;;6.67;3.43;;;;;;;26.21;34.93;99819.56;5090440;28;40870;-83
2022/10/12 08:40:24;;;;;;;8.30;4.13;;;;;;;25.87;34.42;99823.28;5073620;28;41978;-79
2022/10/12 08:42:57;;;;;;;7.17;4.10;;;;;;;24.99;35.75;99803.13;5089786;28;41907;-81
2022/10/12 08:45:36;;;;;;;5.93;3.20;;;;;;;23.68;38.36;99781.72;5089922;28;41325;-78
2022/10/12 08:48:10;;;;;;;7.03;4.10;;;;;;;22.68;39.66;99764.78;5072739;28;38984;-78
2022/10/12 08:50:43;;;;;;;5.67;4.40;;;;;;;22.27;39.69;99721.06;5087319;28;41728;-78
2022/10/12 08:53:18;;;;;;;5.53;4.00;;;;;;;22.65;39.60;99765.06;5073170;28;42539;-78
2022/10/12 08:55:47;;;;;;;7.77;4.57;;;;;;;22.89;39.27;99765.38;5089865;28;42085;-81
2022/10/12 08:58:17;;;;;;;4.93;4.43;;;;;;;22.56;40.14;99762.28;5088964;28;40021;-78
2022/10/12 09:00:49;;;;;;;7.53;4.67;;;;;;;22.25;40.73;99766.28;5070656;28;20207;-82
2022/10/12 09:03:32;;;;;;;7.30;4.17;;;;;;;23.02;40.19;99762.31;5052791;28;43072;-79
2022/10/12 09:06:09;;;;;;;6.40;4.60;;;;;;;23.28;39.67;99769.50;5068642;28;42700;-78
2022/10/12 09:08:52;;;;;;;6.13;4.07;;;;;;;23.15;39.94;99769.03;5069976;28;40168;-79
2022/10/12 09:11:34;;;;;;;5.77;3.80;;;;;;;22.62;40.40;99749.19;5068958;28;42439;-81
2022/10/12 09:14:07;;;;;;;4.73;3.50;;;;;;;22.52;40.74;99765.41;5069443;28;43905;-78
2022/10/12 09:16:40;;;;;;;8.83;4.27;;;;;;;23.02;40.03;99763.16;5069404;28;42429;-81
2022/10/12 09:19:15;;;;;;;6.33;4.93;;;;;;;23.16;40.17;99764.50;5053024;28;41266;-79
2022/10/12 09:21:47;;;;;;;5.83;5.23;;;;;;;22.48;41.45;99748.69;5070837;28;41762;-81
2022/10/12 09:24:19;;;;;;;11.00;6.10;;;;;;;21.63;42.65;99708.38;5067846;28;43887;-80
2022/10/12 09:26:50;;;;;;;7.73;4.73;;;;;;;21.51;43.48;99747.25;5052576;28;41185;-80
2022/10/12 09:29:24;;;;;;;9.73;6.43;;;;;;;21.04;44.53;99721.97;5053499;28;39191;-82
2022/10/12 09:32:19;;;;;;;8.97;5.23;;;;;;;20.89;45.08;99735.03;5052936;28;42255;-78
2022/10/12 09:34:49;;;;;;;7.87;6.27;;;;;;;20.54;45.88;99697.84;5052861;28;43559;-79
2022/10/12 09:37:20;;;;;;;9.73;7.30;;;;;;;20.70;46.65;99721.53;5052962;28;42719;-78
2022/10/12 09:39:49;;;;;;;8.27;6.30;;;;;;;21.01;46.13;99717.75;5070881;28;40398;-82
2022/10/12 09:42:17;;;;;;;8.77;6.60;;;;;;;21.53;44.80;99723.69;5069295;28;40630;-79
2022/10/12 09:44:48;;;;;;;9.67;7.30;;;;;;;21.78;44.41;99733.84;5070233;28;43844;-80
2022/10/12 09:47:28;;;;;;;8.20;6.57;;;;;;;21.92;44.08;99734.38;5068146;28;42218;-79
2022/10/12 09:50:01;;;;;;;10.93;7.40;;;;;;;21.83;44.48;99736.97;5064428;28;40337;-81
2022/10/12 09:52:38;;;;;;;10.23;6.97;;;;;;;21.47;44.60;99735.06;5079630;28;43402;-79
2022/10/12 09:55:20;;;;;;;9.50;6.53;;;;;;;21.37;45.87;99723.44;5064063;28;41841;-79
2022/10/12 09:57:56;;;;;;;9.77;6.50;;;;;;;21.43;46.08;99725.56;5080366;28;41186;-79
2022/10/12 10:00:26;;;;;;;9.03;7.23;;;;;;;21.66;45.02;99724.22;5074634;28;40253;-79
2022/10/12 10:02:55;;;;;;;8.73;7.30;;;;;;;22.13;43.94;99727.81;5055705;28;41642;-79
2022/10/12 10:05:27;;;;;;;10.70;7.97;;;;;;;22.37;44.12;99719.22;5072289;28;41753;-79
2022/10/12 10:08:17;;;;;;;9.87;7.93;;;;;;;22.44;44.24;99724.84;5072558;28;41991;-82
2022/10/12 10:10:49;;;;;;;14.80;9.40;;;;;;;22.23;45.22;99711.59;5072223;28;39563;-81
2022/10/12 10:13:17;;;;;;;12.03;8.70;;;;;;;22.34;44.31;99714.09;5070885;28;42396;-79
2022/10/12 10:15:48;;;;;;;10.30;7.53;;;;;;;22.55;44.16;99719.22;5072085;28;42740;-79
2022/10/12 10:18:24;;;;;;;8.93;7.40;;;;;;;22.73;43.53;99724.69;5055512;28;41062;-80
2022/10/12 10:20:55;;;;;;;7.67;6.53;;;;;;;22.69;43.80;99716.03;5072275;28;39884;-79
2022/10/12 10:23:26;;;;;;;10.73;7.53;;;;;;;22.99;45.23;99704.06;5055666;28;40354;-83
2022/10/12 10:25:57;;;;;;;7.73;7.00;;;;;;;23.23;43.51;99692.59;5071844;28;42880;-82
2022/10/12 10:28:29;;;;;;;9.27;7.13;;;;;;;23.62;43.88;99706.59;5072303;28;43159;-81
2022/10/12 10:31:01;;;;;;;9.90;7.60;;;;;;;23.72;43.20;99717.34;5071918;28;39915;-80
2022/10/12 10:33:30;;;;;;;8.57;7.20;;;;;;;23.89;43.35;99722.69;5071759;28;40650;-81
2022/10/12 10:36:03;;;;;;;10.97;7.33;;;;;;;24.45;41.91;99726.75;5071712;28;42750;-83
2022/10/12 10:38:45;;;;;;;8.97;8.00;;;;;;;25.45;40.75;99741.22;5068729;28;42247;-80
2022/10/12 10:41:18;;;;;;;10.40;8.27;;;;;;;26.17;38.53;99753.03;5071145;28;40144;-79
2022/10/12 10:43:48;;;;;;;12.10;8.17;;;;;;;26.79;38.38;99743.97;5069031;28;41721;-82
2022/10/12 10:46:22;;;;;;;9.20;7.97;;;;;;;27.87;35.62;99766.50;5071380;28;44364;-81
2022/10/12 10:48:57;;;;;;;9.53;8.00;;;;;;;29.26;34.18;99769.28;5068746;28;42359;-76
2022/10/12 10:54:28;;;;;;;10.67;8.80;;;;;;;31.01;30.74;99787.44;5170577;27;20591;-79
2022/10/12 10:57:01;;;;;;;10.60;8.73;;;;;;;31.34;31.15;99776.59;5167323;27;39836;-80
2022/10/12 10:59:41;;;;;;;10.57;9.30;;;;;;;31.26;29.94;99767.75;5169367;27;41584;-79
2022/10/12 11:02:19;;;;;;;9.73;8.07;;;;;;;31.46;29.96;99763.13;5167437;27;43292;-78
2022/10/12 11:04:52;;;;;;;13.80;9.07;;;;;;;31.93;29.88;99764.03;5169214;27;42569;-80
2022/10/12 11:07:26;;;;;;;11.63;9.77;;;;;;;32.34;29.40;99761.91;5167649;27;40110;-78
2022/10/12 11:09:59;;;;;;;12.43;10.07;;;;;;;32.79;28.72;99764.72;5151970;27;40807;-79
2022/10/12 11:12:31;;;;;;;11.23;10.00;;;;;;;33.06;27.99;99763.53;5167713;27;43829;-78
2022/10/12 11:15:06;;;;;;;9.50;8.60;;;;;;;33.04;28.54;99756.59;5151717;27;42321;-79
2022/10/12 11:17:40;;;;;;;9.83;8.63;;;;;;;32.78;29.21;99739.19;5166768;27;39981;-81
2022/10/12 11:20:27;;;;;;;9.43;8.47;;;;;;;32.29;30.05;99725.19;5166926;27;41507;-79
2022/10/12 11:23:01;;;;;;;9.53;8.23;;;;;;;31.90;30.11;99720.63;5150643;27;42592;-82
2022/10/12 11:25:37;;;;;;;11.87;9.27;;;;;;;32.45;29.60;99725.56;5168496;27;42352;-79
2022/10/12 11:28:08;;;;;;;9.03;7.80;;;;;;;33.69;27.71;99746.25;5151380;27;38996;-81
2022/10/12 11:30:41;;;;;;;10.25;8.82;;;;;;;34.98;26.60;99748.97;5168779;27;41510;-81
2022/10/12 11:33:14;;;;;;;10.27;8.80;;;;;;;36.39;25.16;99755.63;5168385;27;43685;-80
2022/10/12 11:35:45;;;;;;;10.65;9.23;;;;;;;37.52;23.80;99755.75;5166428;27;42165;-82
2022/10/12 11:38:19;;;;;;;9.60;8.45;;;;;;;38.60;22.58;99756.38;5151076;27;38804;-79
2022/10/12 11:40:52;;;;;;;9.30;8.10;;;;;;;39.57;21.04;99755.56;5150893;27;43234;-81
2022/10/12 11:43:23;;;;;;;8.15;7.35;;;;;;;40.14;20.49;99759.41;5151140;27;42869;-81
2022/10/12 11:45:55;;;;;;;7.72;6.38;;;;;;;40.58;20.54;99750.78;5166355;27;42493;-83
2022/10/12 11:48:27;;;;;;;8.88;7.38;;;;;;;41.06;19.65;99746.00;5168612;27;40731;-80
2022/10/12 11:50:58;;;;;;;7.45;6.40;;;;;;;41.50;19.00;99741.66;5166252;27;41396;-81
2022/10/12 11:53:34;;;;;;;8.65;7.35;;;;;;;41.45;19.09;99735.25;5150144;27;41923;-83
2022/10/12 11:56:11;;;;;;;9.77;7.05;;;;;;;41.12;19.74;99722.66;5166553;27;41716;-80